Главная страница
METAR-TAF:

METAR-TAF

Аэропорты :

Vamdrup

Кольдинг, Дания

широта: 55-26N, долгота: 009-20E, высота над уровнем моря: 44 м

Текущие метеонаблюдения

Эта сводка был подготовлена 28 минут назад, в 19:50 UTC
Ветер 10 Узел от восточно-северо-восточный
Температура 9°C
Влажность 61%
Давление 1034 hPa

METAR: EKVD 181950Z AUTO 07010KT //// ///////// 09/02 Q1034

Время: 22:18 (20:18 UTC)

Прогноз

Эта сводка был подготовлена 11 часа и 20 минут назад, в 08:58 UTC
Прогноз действительный с 18-го 09 UTC до 18-го 15 UTC
Ветер 10 Узел от восточный
Видимость 10 км и более
Нет облачности ниже 1500 м, и нет кучево-дождевой облачности

TAF: EKVD 180858Z 1809/1815 08010KT CAVOK

Метеонаблюдения и прогнозы для более 4000 аэропортов (сводки METAR и TAF).

Имеющиеся станции представлены на карте желтыми и красными точками.

Чтобы увидеть название станции, наведите на нее мышь.

Затем щелкните, чтобы увидеть метеонаблюдения и метеопрогнозы.

Управление картой: чтобы увеличить масштаб, щелкните зеленые кнопки с черным крестиком; чтобы уменьшить масштаб, щелкните зеленую кнопку с тире; для просмотра соседних карт щелкайте зеленые стрелки.


METAR-TAF: